^^
Datos históricos de la estación: Murcia-Puente Tocinos
Diario Informe para Mayo 2, 2019 Unidades:  Métrico    Inglés   Ambas
Diario Semanal Mensual Anual Configurable
  Máximo: Mínimo: Media:
Temperatura: 22.6 °C 13.9 °C 17.9 °C
Punto de rocio: 12.7 °C 5.9 °C 9.6 °C
Humedad: 83% 37% 61%
Velocidad viento: 19.3km/h 0.0km/h 9.2km/h
Racha viento: 33.8km/h - -
Viento- - ESE
Presión: 1013.5 hPa 1011.0 hPa -
Precipitación: 0.0 mm    
Historical Graphs
 
 
Tabla de datos para Mayo 2, 2019
Hora Temperatura Punto de rocio Presión Viento Velocidad viento Racha viento Humedad Intensidad lluvia(por hora) Nubes
00:00 16.2 °C 12.4 °C 1013.0 hPa NE 4.8 km/h 8.0 km/h 78% 0.0 mm CLR
00:05 16.2 °C 12.6 °C 1012.9 hPa ENE 5.0 km/h 5.6 km/h 79% 0.0 mm CLR
00:10 16.2 °C 12.6 °C 1012.9 hPa NNE 3.2 km/h 7.4 km/h 79% 0.0 mm CLR
00:15 16.2 °C 12.6 °C 1012.9 hPa NE 3.2 km/h 5.6 km/h 79% 0.0 mm CLR
00:20 16.2 °C 12.6 °C 1012.8 hPa NE 3.2 km/h 8.0 km/h 79% 0.0 mm CLR
00:25 16.2 °C 12.6 °C 1012.8 hPa NE 3.2 km/h 3.7 km/h 79% 0.0 mm CLR
00:30 16.2 °C 12.6 °C 1012.8 hPa NE 3.2 km/h 3.7 km/h 79% 0.0 mm CLR
00:35 16.2 °C 12.6 °C 1013.2 hPa NE 3.2 km/h 5.6 km/h 79% 0.0 mm CLR
00:40 16.3 °C 12.7 °C 1013.2 hPa East 3.2 km/h 8.0 km/h 79% 0.0 mm CLR
00:45 16.3 °C 12.4 °C 1013.2 hPa South 2.9 km/h 7.6 km/h 78% 0.0 mm CLR
00:50 16.3 °C 12.4 °C 1013.3 hPa SSW 5.0 km/h 7.4 km/h 78% 0.0 mm CLR
00:55 16.3 °C 12.4 °C 1013.3 hPa SSW 5.0 km/h 7.4 km/h 78% 0.0 mm CLR
01:00 16.3 °C 12.4 °C 1013.3 hPa SSW 4.8 km/h 9.7 km/h 78% 0.0 mm CLR
01:05 16.3 °C 12.4 °C 1013.4 hPa South 5.0 km/h 7.4 km/h 78% 0.0 mm CLR
01:10 16.4 °C 12.6 °C 1013.4 hPa South 4.8 km/h 11.3 km/h 78% 0.0 mm CLR
01:15 16.4 °C 12.3 °C 1013.4 hPa SSW 5.8 km/h 3.7 km/h 77% 0.0 mm CLR
01:20 16.3 °C 12.3 °C 1013.4 hPa SSW 3.9 km/h   77% 0.0 mm CLR
01:25 16.3 °C 12.4 °C 1013.4 hPa SW 3.9 km/h 3.7 km/h 78% 0.0 mm CLR
01:30 16.2 °C 12.6 °C 1013.4 hPa WSW 1.6 km/h 8.0 km/h 79% 0.0 mm CLR
01:35 16.1 °C 12.7 °C 1013.3 hPa North 2.3 km/h 5.6 km/h 80% 0.0 mm CLR
01:40 15.9 °C 12.4 °C 1013.3 hPa North 3.2 km/h 8.0 km/h 80% 0.0 mm CLR
01:45 15.8 °C 12.6 °C 1013.3 hPa NNE 3.2 km/h 2.3 km/h 81% 0.0 mm CLR
01:50 15.8 °C 12.6 °C 1013.3 hPa NNE 2.3 km/h 7.4 km/h 81% 0.0 mm CLR
01:55 15.7 °C 12.4 °C 1013.3 hPa NNE 2.3 km/h 5.6 km/h 81% 0.0 mm CLR
02:00 15.7 °C 12.3 °C 1013.3 hPa NE 3.2 km/h 8.0 km/h 80% 0.0 mm CLR
02:05 15.5 °C 11.7 °C 1012.9 hPa ENE 4.7 km/h 4.7 km/h 78% 0.0 mm CLR
02:10 15.4 °C 11.4 °C 1012.9 hPa ENE 3.9 km/h 7.4 km/h 77% 0.0 mm CLR
02:15 15.3 °C 11.5 °C 1012.9 hPa ENE 3.9 km/h 1.9 km/h 78% 0.0 mm CLR
02:20 15.3 °C 11.5 °C 1012.8 hPa NE 3.9 km/h 7.4 km/h 78% 0.0 mm CLR
02:25 15.3 °C 11.5 °C 1012.8 hPa NE 3.9 km/h 7.4 km/h 78% 0.0 mm CLR
02:30 15.4 °C 11.8 °C 1012.8 hPa NE 4.8 km/h 9.7 km/h 79% 0.0 mm CLR
02:35 15.4 °C 11.8 °C 1012.5 hPa NE 5.0 km/h 7.6 km/h 79% 0.0 mm CLR
02:40 15.4 °C 11.8 °C 1012.5 hPa East 4.7 km/h 7.4 km/h 79% 0.0 mm CLR
02:45 15.4 °C 11.9 °C 1012.5 hPa NNE 4.7 km/h 7.4 km/h 80% 0.0 mm CLR
02:50 15.3 °C 12.1 °C 1012.2 hPa ENE 5.0 km/h 5.6 km/h 81% 0.0 mm CLR
02:55 15.3 °C 12.1 °C 1012.2 hPa ENE 5.0 km/h   81% 0.0 mm CLR
03:00 15.3 °C 12.1 °C 1012.2 hPa Calm     81% 0.0 mm CLR
03:05 15.2 °C 11.9 °C 1011.9 hPa Calm     81% 0.0 mm CLR
03:10 15.2 °C 11.9 °C 1011.9 hPa Calm     81% 0.0 mm CLR
03:15 15.0 °C 11.6 °C 1011.9 hPa Calm   7.4 km/h 80% 0.0 mm CLR
03:20 14.9 °C 11.7 °C 1011.8 hPa ENE 3.2 km/h 7.4 km/h 81% 0.0 mm CLR
03:25 14.9 °C 11.7 °C 1011.8 hPa NE 3.2 km/h 5.6 km/h 81% 0.0 mm CLR
03:30 14.9 °C 11.8 °C 1011.8 hPa NE 3.2 km/h 3.7 km/h 82% 0.0 mm CLR
03:35 14.8 °C 11.8 °C 1011.7 hPa NE 3.2 km/h   82% 0.0 mm CLR
03:40 14.8 °C 11.8 °C 1011.7 hPa NE 1.6 km/h   82% 0.0 mm CLR
03:45 14.8 °C 11.8 °C 1011.7 hPa NE 2.3 km/h   82% 0.0 mm CLR
03:50 14.9 °C 11.8 °C 1011.8 hPa SW 2.3 km/h 5.6 km/h 82% 0.0 mm CLR
03:55 14.9 °C 11.8 °C 1011.8 hPa SW 2.3 km/h 5.8 km/h 82% 0.0 mm CLR
04:00 14.9 °C 11.8 °C 1011.8 hPa WSW 3.2 km/h 9.7 km/h 82% 0.0 mm CLR
04:05 14.8 °C 11.8 °C 1011.7 hPa West 3.2 km/h 7.4 km/h 82% 0.0 mm CLR
04:10 14.8 °C 11.8 °C 1011.7 hPa West 5.0 km/h   82% 0.0 mm CLR
04:15 14.7 °C 11.8 °C 1011.7 hPa West 5.0 km/h 3.9 km/h 83% 0.0 mm CLR
04:20 14.7 °C 11.8 °C 1011.6 hPa West 2.3 km/h 3.7 km/h 83% 0.0 mm CLR
04:25 14.8 °C 11.9 °C 1011.6 hPa West 2.3 km/h 3.7 km/h 83% 0.0 mm CLR
04:30 14.8 °C 11.9 °C 1011.6 hPa West 3.2 km/h 6.4 km/h 83% 0.0 mm CLR
04:35 14.8 °C 11.9 °C 1011.7 hPa West 2.9 km/h 6.9 km/h 83% 0.0 mm CLR
04:40 14.7 °C 11.8 °C 1011.7 hPa West 1.6 km/h 8.0 km/h 83% 0.0 mm CLR
04:45 14.7 °C 11.7 °C 1011.7 hPa WSW 2.3 km/h 9.3 km/h 82% 0.0 mm CLR
04:50 14.7 °C 11.7 °C 1011.8 hPa West 3.9 km/h 7.4 km/h 82% 0.0 mm CLR
04:55 14.7 °C 11.7 °C 1011.8 hPa West 3.9 km/h 7.4 km/h 82% 0.0 mm CLR
05:00 14.7 °C 11.7 °C 1011.8 hPa West 3.2 km/h 8.0 km/h 82% 0.0 mm CLR
05:05 14.7 °C 11.7 °C 1011.6 hPa WSW 4.7 km/h 5.6 km/h 82% 0.0 mm CLR
05:10 14.8 °C 11.8 °C 1011.6 hPa WNW 2.3 km/h 5.6 km/h 82% 0.0 mm CLR
05:15 14.8 °C 11.8 °C 1011.6 hPa WNW 2.3 km/h 7.4 km/h 82% 0.0 mm CLR
05:20 14.7 °C 11.4 °C 1011.7 hPa West 3.2 km/h 7.4 km/h 81% 0.0 mm CLR
05:25 14.7 °C 11.4 °C 1011.7 hPa West 3.2 km/h   81% 0.0 mm CLR
05:30 14.7 °C 11.4 °C 1011.7 hPa West 2.9 km/h 3.7 km/h 81% 0.0 mm CLR
05:35 14.6 °C 11.2 °C 1011.8 hPa SSW 2.9 km/h 7.4 km/h 80% 0.0 mm CLR
05:40 14.5 °C 11.1 °C 1011.8 hPa SSE 3.2 km/h 7.4 km/h 80% 0.0 mm CLR
05:45 14.3 °C 10.9 °C 1011.8 hPa SSE 3.2 km/h 5.6 km/h 80% 0.0 mm CLR
05:50 14.3 °C 11.1 °C 1011.7 hPa SSE 3.9 km/h 3.7 km/h 81% 0.0 mm CLR
05:55 14.2 °C 11.0 °C 1011.7 hPa SSE 3.9 km/h 3.9 km/h 81% 0.0 mm CLR
06:00 14.2 °C 10.8 °C 1011.7 hPa SSE 3.2 km/h 8.0 km/h 80% 0.0 mm CLR
06:05 14.2 °C 10.8 °C 1011.7 hPa SW 3.2 km/h 6.4 km/h 80% 0.0 mm CLR
06:10 14.2 °C 10.8 °C 1011.7 hPa SSW 3.2 km/h 8.0 km/h 80% 0.0 mm CLR
06:15 14.2 °C 11.0 °C 1011.7 hPa SSW 3.9 km/h 12.2 km/h 81% 0.0 mm CLR
06:20 14.1 °C 10.9 °C 1011.8 hPa South 7.6 km/h 14.8 km/h 81% 0.0 mm CLR
06:25 14.0 °C 10.8 °C 1011.8 hPa SSW 7.6 km/h 13.0 km/h 81% 0.0 mm CLR
06:30 13.9 °C 10.5 °C 1011.8 hPa SSW 10.3 km/h 14.8 km/h 80% 0.0 mm CLR
06:35 13.9 °C 10.3 °C 1012.0 hPa SSW 10.3 km/h 14.8 km/h 79% 0.0 mm CLR
06:40 14.0 °C 10.4 °C 1012.0 hPa SSW 11.1 km/h 14.8 km/h 79% 0.0 mm CLR
06:45 14.0 °C 10.2 °C 1012.0 hPa SSW 11.1 km/h 9.3 km/h 78% 0.0 mm CLR
06:50 14.1 °C 10.3 °C 1012.0 hPa SW 7.6 km/h 11.1 km/h 78% 0.0 mm CLR
06:55 14.2 °C 10.2 °C 1012.0 hPa SSW 7.6 km/h 11.1 km/h 77% 0.0 mm CLR
07:00 14.2 °C 10.2 °C 1012.0 hPa SSW 8.0 km/h 14.5 km/h 77% 0.0 mm CLR
07:05 14.2 °C 10.0 °C 1012.0 hPa SSW 8.0 km/h 12.9 km/h 76% 0.0 mm CLR
07:10 14.2 °C 10.0 °C 1012.0 hPa SSW 5.8 km/h 7.4 km/h 76% 0.0 mm CLR
07:15 14.2 °C 10.0 °C 1012.0 hPa SW 5.8 km/h 9.5 km/h 76% 0.0 mm CLR
07:20 14.2 °C 9.8 °C 1012.1 hPa SSW 6.4 km/h 11.1 km/h 75% 0.0 mm CLR
07:25 14.1 °C 9.7 °C 1012.1 hPa SSE 6.4 km/h 11.1 km/h 75% 0.0 mm CLR
07:30 14.1 °C 9.7 °C 1012.1 hPa SSW 8.4 km/h 13.0 km/h 75% 0.0 mm CLR
07:35 14.1 °C 9.7 °C 1012.1 hPa South 8.0 km/h 12.9 km/h 75% 0.0 mm CLR
07:40 14.1 °C 9.6 °C 1012.1 hPa SSE 8.4 km/h 11.1 km/h 74% 0.0 mm CLR
07:45 14.1 °C 9.7 °C 1012.1 hPa SSW 8.4 km/h 7.4 km/h 75% 0.0 mm CLR
07:50 14.1 °C 9.5 °C 1012.0 hPa SSW 8.0 km/h 11.3 km/h 74% 0.0 mm CLR
07:55 14.3 °C 9.5 °C 1012.0 hPa SSW 6.4 km/h 7.4 km/h 73% 0.0 mm CLR
08:00 14.4 °C 9.4 °C 1012.0 hPa SSW 8.0 km/h 8.0 km/h 72% 0.0 mm CLR
08:05 14.7 °C 9.3 °C 1012.0 hPa SSW 6.4 km/h 11.1 km/h 70% 0.0 mm CLR
08:10 14.8 °C 9.4 °C 1012.0 hPa SSE 6.9 km/h 11.1 km/h 70% 0.0 mm CLR
08:15 14.9 °C 9.5 °C 1012.0 hPa South 6.9 km/h 9.5 km/h 70% 0.0 mm CLR
08:20 15.1 °C 9.4 °C 1012.3 hPa SSW 7.6 km/h 11.9 km/h 69% 0.0 mm CLR
08:25 15.2 °C 9.3 °C 1012.3 hPa SSW 7.6 km/h 8.4 km/h 68% 0.0 mm CLR
08:30 15.3 °C 9.2 °C 1012.3 hPa SSW 6.4 km/h 9.3 km/h 67% 0.0 mm CLR
08:35 15.5 °C 9.2 °C 1012.6 hPa South 6.4 km/h 7.4 km/h 66% 0.0 mm CLR
08:40 15.6 °C 8.8 °C 1012.6 hPa SSW 4.8 km/h 8.0 km/h 64% 0.0 mm CLR
08:45 15.8 °C 8.6 °C 1012.6 hPa South 5.0 km/h 7.4 km/h 62% 0.0 mm CLR
08:50 15.9 °C 8.4 °C 1012.4 hPa South 5.0 km/h 5.8 km/h 61% 0.0 mm CLR
08:55 16.1 °C 8.6 °C 1012.4 hPa SSE 5.0 km/h 10.3 km/h 61% 0.0 mm CLR
09:00 16.1 °C 8.6 °C 1012.4 hPa SSE 8.0 km/h 11.3 km/h 61% 0.0 mm CLR
09:05 16.2 °C 8.7 °C 1012.5 hPa South 8.0 km/h 11.3 km/h 61% 0.0 mm CLR
09:10 16.3 °C 8.3 °C 1012.5 hPa SSE 8.0 km/h 12.9 km/h 59% 0.0 mm CLR
09:15 16.5 °C 8.4 °C 1012.5 hPa SE 8.4 km/h 7.4 km/h 59% 0.0 mm CLR
09:20 16.7 °C 8.7 °C 1012.5 hPa South 4.8 km/h 6.4 km/h 59% 0.0 mm CLR
09:25 16.9 °C 8.3 °C 1012.5 hPa WNW 5.0 km/h 7.4 km/h 57% 0.0 mm CLR
09:30 17.0 °C 8.4 °C 1012.5 hPa WNW 3.9 km/h 5.6 km/h 57% 0.0 mm CLR
09:35 17.2 °C 8.3 °C 1012.5 hPa NW 3.9 km/h 5.6 km/h 56% 0.0 mm CLR
09:40 17.4 °C 8.5 °C 1012.5 hPa NNW 2.9 km/h 3.7 km/h 56% 0.0 mm CLR
09:45 17.8 °C 8.4 °C 1012.5 hPa NNW 2.9 km/h 8.7 km/h 54% 0.0 mm CLR
09:50 18.1 °C 8.4 °C 1012.5 hPa NNW 3.2 km/h 9.7 km/h 53% 0.0 mm CLR
09:55 18.3 °C 8.3 °C 1012.5 hPa NNW 3.2 km/h 5.6 km/h 52% 0.0 mm CLR
10:00 18.4 °C 8.7 °C 1012.5 hPa NNW 3.2 km/h 8.0 km/h 53% 0.0 mm CLR
10:05 18.6 °C 8.8 °C 1012.6 hPa East 4.7 km/h 7.4 km/h 53% 0.0 mm CLR
10:10 18.8 °C 8.7 °C 1012.6 hPa North 3.2 km/h 11.3 km/h 52% 0.0 mm CLR
10:15 18.9 °C 8.6 °C 1012.6 hPa NE 4.7 km/h 11.1 km/h 51% 0.0 mm CLR
10:20 19.1 °C 8.7 °C 1012.9 hPa NNE 8.4 km/h 14.8 km/h 51% 0.0 mm CLR
10:25 19.1 °C 8.4 °C 1012.9 hPa NNE 8.4 km/h 21.7 km/h 50% 0.0 mm CLR
10:30 19.1 °C 8.1 °C 1012.9 hPa NE 10.3 km/h 16.7 km/h 49% 0.0 mm CLR
10:35 19.2 °C 8.5 °C 1013.1 hPa NE 11.3 km/h 22.5 km/h 50% 0.0 mm CLR
10:40 19.3 °C 8.6 °C 1013.1 hPa NE 12.2 km/h 16.7 km/h 50% 0.0 mm CLR
10:45 19.4 °C 9.0 °C 1013.1 hPa NE 12.2 km/h 20.4 km/h 51% 0.0 mm CLR
10:50 19.5 °C 9.1 °C 1013.3 hPa East 12.2 km/h 16.7 km/h 51% 0.0 mm CLR
10:55 19.6 °C 9.4 °C 1013.3 hPa ENE 12.2 km/h 13.0 km/h 52% 0.0 mm CLR
11:00 19.9 °C 9.7 °C 1013.3 hPa ENE 11.3 km/h 22.5 km/h 52% 0.0 mm CLR
11:05 20.1 °C 9.9 °C 1013.4 hPa ENE 11.3 km/h 20.9 km/h 52% 0.0 mm CLR
11:10 19.8 °C 10.2 °C 1013.4 hPa NE 13.0 km/h 20.4 km/h 54% 0.0 mm CLR
11:15 19.9 °C 10.1 °C 1013.4 hPa ENE 13.0 km/h 25.9 km/h 53% 0.0 mm CLR
11:20 20.1 °C 9.3 °C 1013.5 hPa NE 12.2 km/h 29.6 km/h 50% 0.0 mm CLR
11:25 20.1 °C 8.7 °C 1013.5 hPa NE 12.2 km/h 22.2 km/h 48% 0.0 mm CLR
11:30 20.4 °C 8.7 °C 1013.5 hPa ENE 16.1 km/h 22.2 km/h 47% 0.0 mm CLR
11:35 20.6 °C 8.9 °C 1013.4 hPa NE 16.1 km/h 23.3 km/h 47% 0.0 mm CLR
11:40 20.7 °C 8.7 °C 1013.4 hPa NE 15.6 km/h 18.5 km/h 46% 0.0 mm CLR
11:45 20.8 °C 8.8 °C 1013.4 hPa NE 15.6 km/h 22.2 km/h 46% 0.0 mm CLR
11:50 20.9 °C 8.8 °C 1013.5 hPa NE 13.7 km/h 24.1 km/h 46% 0.0 mm CLR
11:55 20.9 °C 8.8 °C 1013.5 hPa NE 13.7 km/h 27.8 km/h 46% 0.0 mm CLR
12:00 20.9 °C 8.5 °C 1013.5 hPa NE 14.5 km/h 27.4 km/h 45% 0.0 mm CLR
12:05 20.9 °C 8.5 °C 1013.3 hPa NE 14.5 km/h 27.4 km/h 45% 0.0 mm CLR
12:10 21.2 °C 8.1 °C 1013.3 hPa ENE 13.7 km/h 16.7 km/h 43% 0.0 mm CLR
12:15 21.2 °C 8.4 °C 1013.3 hPa NE 13.7 km/h 20.4 km/h 44% 0.0 mm CLR
12:20 21.3 °C 8.6 °C 1013.2 hPa NE 14.0 km/h 20.4 km/h 44% 0.0 mm CLR
12:25 21.3 °C 8.6 °C 1013.2 hPa NE 14.0 km/h 24.1 km/h 44% 0.0 mm CLR
12:30 21.2 °C 8.4 °C 1013.2 hPa NE 14.0 km/h 24.1 km/h 44% 0.0 mm CLR
12:35 21.2 °C 8.4 °C 1013.1 hPa NE 14.5 km/h 22.5 km/h 44% 0.0 mm CLR
12:40 21.1 °C 8.4 °C 1013.1 hPa ENE 15.6 km/h 17.2 km/h 44% 0.0 mm CLR
12:45 21.1 °C 8.7 °C 1013.1 hPa NE 15.6 km/h 20.4 km/h 45% 0.0 mm CLR
12:50 21.3 °C 8.6 °C 1013.0 hPa NNW 14.8 km/h 18.5 km/h 44% 0.0 mm CLR
12:55 21.4 °C 8.3 °C 1013.0 hPa NNE 14.8 km/h 20.4 km/h 43% 0.0 mm CLR
13:00 21.6 °C 8.4 °C 1013.0 hPa NE 14.5 km/h 22.5 km/h 43% 0.0 mm CLR
13:05 21.5 °C 8.1 °C 1012.8 hPa NE 14.0 km/h 27.8 km/h 42% 0.0 mm CLR
13:10 21.6 °C 8.1 °C 1012.8 hPa NNE 15.6 km/h 16.7 km/h 42% 0.0 mm CLR
13:15 21.7 °C 7.9 °C 1012.8 hPa NE 15.6 km/h 20.9 km/h 41% 0.0 mm CLR
13:20 21.7 °C 7.9 °C 1012.7 hPa NE 15.6 km/h 25.9 km/h 41% 0.0 mm CLR
13:25 21.6 °C 7.4 °C 1012.7 hPa ENE 15.6 km/h 29.6 km/h 40% 0.0 mm CLR
13:30 21.6 °C 7.8 °C 1012.7 hPa NE 19.3 km/h 29.0 km/h 41% 0.0 mm CLR
13:35 21.9 °C 7.7 °C 1012.5 hPa ENE 18.0 km/h 24.1 km/h 40% 0.0 mm CLR
13:40 21.9 °C 7.7 °C 1012.5 hPa East 13.7 km/h 18.5 km/h 40% 0.0 mm CLR
13:45 22.0 °C 8.1 °C 1012.5 hPa NE 13.7 km/h 22.2 km/h 41% 0.0 mm CLR
13:50 21.9 °C 7.7 °C 1012.1 hPa ENE 15.6 km/h 24.1 km/h 40% 0.0 mm CLR
13:55 21.9 °C 7.7 °C 1012.1 hPa NE 15.6 km/h 27.8 km/h 40% 0.0 mm CLR
14:00 22.0 °C 7.8 °C 1012.1 hPa NE 16.1 km/h 29.0 km/h 40% 0.0 mm CLR
14:05 22.2 °C 7.9 °C 1012.2 hPa East 16.4 km/h 16.4 km/h 40% 0.0 mm CLR
14:10 22.1 °C 7.9 °C 1012.2 hPa NE 14.8 km/h 24.1 km/h 40% 0.0 mm CLR
14:15 21.9 °C 7.3 °C 1012.2 hPa North 14.8 km/h 24.1 km/h 39% 0.0 mm CLR
14:20 22.2 °C 7.6 °C 1012.0 hPa ENE 14.0 km/h 24.1 km/h 39% 0.0 mm CLR
14:25 22.2 °C 7.6 °C 1012.0 hPa NNE 14.0 km/h 24.1 km/h 39% 0.0 mm CLR
14:30 22.2 °C 7.6 °C 1012.0 hPa ENE 15.6 km/h 20.4 km/h 39% 0.0 mm CLR
14:35 22.3 °C 8.1 °C 1011.8 hPa ESE 15.6 km/h 20.4 km/h 40% 0.0 mm CLR
14:40 22.6 °C 7.2 °C 1011.8 hPa NE 13.7 km/h 25.9 km/h 37% 0.0 mm CLR
14:45 22.5 °C 7.4 °C 1011.8 hPa NE 13.7 km/h 29.6 km/h 38% 0.0 mm CLR
14:50 22.3 °C 7.7 °C 1011.6 hPa ENE 18.3 km/h 14.8 km/h 39% 0.0 mm CLR
14:55 22.6 °C 7.5 °C 1011.6 hPa ENE 19.3 km/h 25.7 km/h 38% 0.0 mm CLR
15:00 22.4 °C 7.4 °C 1011.6 hPa NE 11.3 km/h 25.7 km/h 38% 0.0 mm CLR
15:05 22.4 °C 7.4 °C 1011.4 hPa NE 11.1 km/h 20.4 km/h 38% 0.0 mm CLR
15:10 22.4 °C 7.4 °C 1011.4 hPa NE 14.0 km/h 22.2 km/h 38% 0.0 mm CLR
15:15 22.3 °C 6.9 °C 1011.4 hPa NE 14.0 km/h 24.1 km/h 37% 0.0 mm CLR
15:20 22.3 °C 7.3 °C 1011.4 hPa NE 14.0 km/h 22.2 km/h 38% 0.0 mm CLR
15:25 22.3 °C 6.9 °C 1011.4 hPa ENE 14.0 km/h 24.1 km/h 37% 0.0 mm CLR
15:30 22.2 °C 7.2 °C 1011.4 hPa East 13.7 km/h 22.2 km/h 38% 0.0 mm CLR
15:35 22.2 °C 7.2 °C 1011.2 hPa NE 13.7 km/h 24.1 km/h 38% 0.0 mm CLR
15:40 21.9 °C 6.6 °C 1011.2 hPa East 14.8 km/h 26.2 km/h 37% 0.0 mm CLR
15:45 21.8 °C 6.8 °C 1011.2 hPa ENE 14.8 km/h 25.9 km/h 38% 0.0 mm CLR
15:50 21.8 °C 6.8 °C 1011.2 hPa ENE 14.5 km/h 24.1 km/h 38% 0.0 mm CLR
15:55 21.8 °C 6.4 °C 1011.2 hPa NNE 14.8 km/h 20.9 km/h 37% 0.0 mm CLR
16:00 21.9 °C 6.9 °C 1011.2 hPa ENE 12.9 km/h 22.5 km/h 38% 0.0 mm CLR
16:05 21.8 °C 6.8 °C 1011.2 hPa NE 12.2 km/h 29.6 km/h 38% 0.0 mm CLR
16:10 21.6 °C 7.1 °C 1011.2 hPa NE 16.1 km/h 20.4 km/h 39% 0.0 mm CLR
16:15 21.4 °C 6.9 °C 1011.2 hPa NE 16.1 km/h 25.9 km/h 39% 0.0 mm CLR
16:20 21.3 °C 6.8 °C 1011.4 hPa East 14.8 km/h 25.9 km/h 39% 0.0 mm CLR
16:25 21.2 °C 6.7 °C 1011.4 hPa NNE 14.8 km/h 25.9 km/h 39% 0.0 mm CLR
16:30 21.3 °C 6.8 °C 1011.4 hPa ENE 15.6 km/h 17.2 km/h 39% 0.0 mm CLR
16:35 21.2 °C 5.9 °C 1011.4 hPa ENE 15.6 km/h 20.4 km/h 37% 0.0 mm CLR
16:40 21.3 °C 6.8 °C 1011.4 hPa NNE 11.9 km/h 16.7 km/h 39% 0.0 mm CLR
16:45 21.2 °C 6.7 °C 1011.4 hPa East 11.9 km/h 22.2 km/h 39% 0.0 mm CLR
16:50 21.0 °C 6.9 °C 1011.3 hPa ENE 13.0 km/h 22.2 km/h 40% 0.0 mm CLR
16:55 20.9 °C 7.2 °C 1011.3 hPa ENE 13.0 km/h 16.7 km/h 41% 0.0 mm CLR
17:00 21.1 °C 6.9 °C 1011.3 hPa ENE 12.9 km/h 24.1 km/h 40% 0.0 mm CLR
17:05 21.2 °C 7.1 °C 1011.3 hPa East 13.0 km/h 24.1 km/h 40% 0.0 mm CLR
17:10 21.1 °C 6.6 °C 1011.3 hPa ESE 14.8 km/h 22.2 km/h 39% 0.0 mm CLR
17:15 21.1 °C 6.9 °C 1011.3 hPa NNE 14.8 km/h 25.9 km/h 40% 0.0 mm CLR
17:20 21.0 °C 6.5 °C 1011.1 hPa SE 14.0 km/h 22.2 km/h 39% 0.0 mm CLR
17:25 21.0 °C 6.9 °C 1011.1 hPa NNE 14.0 km/h 26.2 km/h 40% 0.0 mm CLR
17:30 21.0 °C 6.9 °C 1011.1 hPa NE 15.6 km/h 22.5 km/h 40% 0.0 mm CLR
17:35 21.1 °C 7.3 °C 1011.0 hPa East 15.6 km/h 31.5 km/h 41% 0.0 mm CLR
17:40 21.2 °C 7.8 °C 1011.0 hPa East 15.6 km/h 27.8 km/h 42% 0.0 mm CLR
17:45 21.0 °C 7.2 °C 1011.0 hPa ENE 15.6 km/h 33.3 km/h 41% 0.0 mm CLR
17:50 20.9 °C 7.2 °C 1011.0 hPa ENE 19.0 km/h 25.9 km/h 41% 0.0 mm CLR
17:55 21.1 °C 6.6 °C 1011.0 hPa NNE 19.0 km/h 33.5 km/h 39% 0.0 mm CLR
18:00 21.1 °C 6.9 °C 1011.0 hPa ENE 16.1 km/h 33.8 km/h 40% 0.0 mm CLR
18:05 20.8 °C 7.1 °C 1011.0 hPa ENE 16.1 km/h 14.8 km/h 41% 0.0 mm CLR
18:10 20.8 °C 6.7 °C 1011.0 hPa NE 14.8 km/h 24.1 km/h 40% 0.0 mm CLR
18:15 20.6 °C 6.2 °C 1011.0 hPa East 14.8 km/h 25.9 km/h 39% 0.0 mm CLR
18:20 20.3 °C 6.9 °C 1011.3 hPa NE 16.1 km/h 24.1 km/h 42% 0.0 mm CLR
18:25 20.2 °C 6.5 °C 1011.3 hPa NE 16.1 km/h 27.0 km/h 41% 0.0 mm CLR
18:30 20.1 °C 7.1 °C 1011.3 hPa NE 14.8 km/h 24.1 km/h 43% 0.0 mm CLR
18:35 20.0 °C 7.1 °C 1011.6 hPa East 14.8 km/h 24.1 km/h 43% 0.0 mm CLR
18:40 20.0 °C 7.4 °C 1011.6 hPa ENE 14.8 km/h 24.1 km/h 44% 0.0 mm CLR
18:45 20.1 °C 7.4 °C 1011.6 hPa NE 14.8 km/h 24.1 km/h 44% 0.0 mm CLR
18:50 20.2 °C 8.2 °C 1011.4 hPa NE 14.0 km/h 16.7 km/h 46% 0.0 mm CLR
18:55 20.2 °C 7.9 °C 1011.4 hPa NE 14.0 km/h 33.3 km/h 45% 0.0 mm CLR
19:00 19.9 °C 8.2 °C 1011.4 hPa NE 16.1 km/h 30.6 km/h 47% 0.0 mm CLR
19:05 19.8 °C 8.2 °C 1011.5 hPa North 16.1 km/h 29.6 km/h 47% 0.0 mm CLR
19:10 19.8 °C 8.2 °C 1011.5 hPa NE 16.1 km/h 25.7 km/h 47% 0.0 mm CLR
19:15 19.7 °C 8.4 °C 1011.5 hPa NE 16.4 km/h 22.2 km/h 48% 0.0 mm CLR
19:20 19.7 °C 8.4 °C 1011.8 hPa ENE 14.8 km/h 20.4 km/h 48% 0.0 mm CLR
19:25 19.7 °C 8.1 °C 1011.8 hPa North 14.8 km/h 22.2 km/h 47% 0.0 mm CLR
19:30 19.7 °C 8.1 °C 1011.8 hPa East 13.0 km/h 18.5 km/h 47% 0.0 mm CLR
19:35 19.7 °C 8.1 °C 1012.0 hPa NE 13.0 km/h 24.1 km/h 47% 0.0 mm CLR
19:40 19.5 °C 8.2 °C 1012.0 hPa ENE 14.0 km/h 22.2 km/h 48% 0.0 mm CLR
19:45 19.5 °C 8.5 °C 1012.0 hPa NNW 14.0 km/h 24.1 km/h 49% 0.0 mm CLR
19:50 19.3 °C 8.3 °C 1011.8 hPa NE 12.9 km/h 25.7 km/h 49% 0.0 mm CLR
19:55 19.2 °C 8.2 °C 1011.8 hPa NE 13.7 km/h 14.8 km/h 49% 0.0 mm CLR
20:00 19.1 °C 8.1 °C 1011.8 hPa NE 14.5 km/h 27.4 km/h 49% 0.0 mm CLR
20:05 18.9 °C 8.2 °C 1011.8 hPa ENE 14.8 km/h 25.9 km/h 50% 0.0 mm CLR
20:10 18.8 °C 8.2 °C 1011.8 hPa NE 16.1 km/h 22.2 km/h 50% 0.0 mm CLR
20:15 18.7 °C 8.3 °C 1011.8 hPa ENE 16.1 km/h 18.5 km/h 51% 0.0 mm CLR
20:20 18.7 °C 8.6 °C 1011.8 hPa NE 13.7 km/h 14.8 km/h 52% 0.0 mm CLR
20:25 18.6 °C 8.6 °C 1011.8 hPa ESE 13.7 km/h 18.5 km/h 52% 0.0 mm CLR
20:30 18.6 °C 8.8 °C 1011.8 hPa ENE 10.0 km/h 15.6 km/h 53% 0.0 mm CLR
20:35 18.4 °C 8.7 °C 1012.1 hPa ENE 10.0 km/h 17.2 km/h 53% 0.0 mm CLR
20:40 18.4 °C 8.9 °C 1012.1 hPa NE 10.3 km/h 17.2 km/h 54% 0.0 mm CLR
20:45 18.3 °C 9.4 °C 1012.1 hPa NE 10.3 km/h 14.8 km/h 56% 0.0 mm CLR
20:50 18.1 °C 9.4 °C 1012.0 hPa NE 11.9 km/h 9.3 km/h 57% 0.0 mm CLR
20:55 18.0 °C 9.6 °C 1012.0 hPa NNE 11.9 km/h 14.8 km/h 58% 0.0 mm CLR
21:00 17.9 °C 9.8 °C 1012.0 hPa NE 9.7 km/h 16.1 km/h 59% 0.0 mm CLR
21:05 17.8 °C 9.9 °C 1012.1 hPa NE 9.5 km/h 13.0 km/h 60% 0.0 mm CLR
21:10 17.7 °C 10.1 °C 1012.1 hPa NE 10.3 km/h 14.8 km/h 61% 0.0 mm CLR
21:15 17.7 °C 10.3 °C 1012.1 hPa NE 10.3 km/h 18.5 km/h 62% 0.0 mm CLR
21:20 17.6 °C 10.4 °C 1012.2 hPa NNE 12.2 km/h 11.1 km/h 63% 0.0 mm CLR
21:25 17.5 °C 10.6 °C 1012.2 hPa NE 12.2 km/h 13.0 km/h 64% 0.0 mm CLR
21:30 17.4 °C 10.7 °C 1012.2 hPa NNE 9.5 km/h 13.0 km/h 65% 0.0 mm CLR
21:35 17.3 °C 10.9 °C 1012.2 hPa NNE 9.5 km/h 18.5 km/h 66% 0.0 mm CLR
21:40 17.2 °C 10.8 °C 1012.2 hPa ENE 11.1 km/h 13.7 km/h 66% 0.0 mm CLR
21:45 17.1 °C 10.9 °C 1012.2 hPa NE 11.1 km/h 20.4 km/h 67% 0.0 mm CLR
21:50 16.9 °C 10.9 °C 1012.5 hPa NE 11.9 km/h 17.2 km/h 68% 0.0 mm CLR
21:55 16.8 °C 11.1 °C 1012.5 hPa NE 11.9 km/h 11.1 km/h 69% 0.0 mm CLR
22:00 16.8 °C 11.1 °C 1012.5 hPa NE 9.7 km/h 12.9 km/h 69% 0.0 mm CLR
22:05 16.8 °C 11.1 °C 1012.6 hPa NE 9.5 km/h 10.3 km/h 69% 0.0 mm CLR
22:10 16.7 °C 11.2 °C 1012.6 hPa NE 7.6 km/h 11.1 km/h 70% 0.0 mm CLR
22:15 16.7 °C 11.2 °C 1012.6 hPa ENE 7.6 km/h 11.1 km/h 70% 0.0 mm CLR
22:20 16.6 °C 11.1 °C 1012.5 hPa NE 7.6 km/h 9.3 km/h 70% 0.0 mm CLR
22:25 16.5 °C 11.0 °C 1012.5 hPa NE 7.6 km/h 9.3 km/h 70% 0.0 mm CLR
22:30 16.4 °C 11.1 °C 1012.5 hPa NE 5.8 km/h 7.4 km/h 71% 0.0 mm CLR
22:35 16.4 °C 11.3 °C 1012.8 hPa NE 5.8 km/h 11.1 km/h 72% 0.0 mm CLR
22:40 16.3 °C 11.4 °C 1012.8 hPa ENE 6.9 km/h 13.0 km/h 73% 0.0 mm CLR
22:45 16.2 °C 11.6 °C 1012.8 hPa NNE 6.9 km/h 11.1 km/h 74% 0.0 mm CLR
22:50 16.1 °C 11.4 °C 1012.9 hPa NE 8.4 km/h 11.1 km/h 74% 0.0 mm CLR
22:55 16.1 °C 11.7 °C 1012.9 hPa NE 8.4 km/h 11.1 km/h 75% 0.0 mm CLR
23:00 16.1 °C 11.6 °C 1012.9 hPa NE 8.0 km/h 11.3 km/h 75% 0.0 mm CLR
23:05 16.0 °C 11.8 °C 1012.9 hPa NE 7.6 km/h 9.3 km/h 76% 0.0 mm CLR
23:10 15.9 °C 11.7 °C 1012.9 hPa NE 4.8 km/h 9.7 km/h 76% 0.0 mm CLR
23:15 15.9 °C 11.9 °C 1012.9 hPa NE 5.0 km/h 9.3 km/h 77% 0.0 mm CLR
23:20 15.9 °C 11.9 °C 1013.0 hPa NNE 4.7 km/h 5.6 km/h 77% 0.0 mm CLR
23:25 15.9 °C 12.1 °C 1013.0 hPa NE 4.7 km/h 5.6 km/h 78% 0.0 mm CLR
23:30 15.9 °C 12.1 °C 1013.0 hPa ENE 2.9 km/h   78% 0.0 mm CLR
23:35 15.9 °C 12.1 °C 1013.1 hPa ENE 2.9 km/h 3.7 km/h 78% 0.0 mm CLR
23:40 15.9 °C 12.1 °C 1013.1 hPa Calm     78% 0.0 mm CLR
23:45 15.9 °C 12.3 °C 1013.1 hPa Calm     79% 0.0 mm CLR
23:50 15.9 °C 12.1 °C 1013.2 hPa Calm   7.4 km/h 78% 0.0 mm CLR
23:55 15.9 °C 12.1 °C 1013.2 hPa Calm   3.7 km/h 78% 0.0 mm CLR
Murcia-Puente Tocinos, España
Compliments of Weather Underground - 2.75 mb

La estación de MeteoMurcia.com, publica sus datos en los siguientes proyectos:

Weather Underground PWS IMURCIAP2 Meteoclimatic www.awekas.at

W3Counter
Web Analytics